Time;durP1;ratioP1;P1;durP2;ratioP2;P2;SDS_P1;SDS_P2;PMS_P1;PMS_P2;Temp;Humidity;BMP_temperature;BMP_pressure;BME280_temperature;BME280_humidity;BME280_pressure;Samples;Min_cycle;Max_cycle;Signal;HPM_P1;HPM_P2
2022/07/29 00:03:17;;;;;;;;;;;;;;;19.13;82.06;101116.31;10586415;28;19924;-69
2022/07/29 00:08:20;;;;;;;;;;;;;;;19.19;82.02;101116.13;10586158;28;20347;-67
2022/07/29 00:13:25;;;;;;;;;;;;;;;19.17;82.23;101128.47;10586117;28;19927;-69
2022/07/29 00:18:34;;;;;;;;;;;;;;;19.17;81.69;101128.47;10585854;28;19924;-74
2022/07/29 00:23:37;;;;;;;;;;;;;;;19.24;80.88;101116.84;10585395;28;19924;-66
2022/07/29 00:28:41;;;;;;;;;;;;;;;19.26;80.86;101112.34;10585461;28;19923;-66
2022/07/29 00:33:44;;;;;;;;;;;;;;;19.17;81.74;101126.69;10585347;28;19924;-68
2022/07/29 00:38:47;;;;;;;;;;;;;;;19.10;82.11;101121.69;10585381;28;20347;-69
2022/07/29 00:43:52;;;;;;;;;;;;;;;19.02;82.87;101116.69;10584760;28;19924;-67
2022/07/29 00:48:55;;;;;;;;;;;;;;;19.00;83.41;101115.84;10585516;28;19934;-67
2022/07/29 00:53:58;;;;;;;;;;;;;;;18.97;82.50;101117.72;10585185;28;19930;-65
2022/07/29 00:59:02;;;;;;;;;;;;;;;18.87;82.88;101111.03;10585091;28;19923;-67
2022/07/29 01:04:06;;;;;;;;;;;;;;;18.93;82.21;101122.22;10584658;28;20324;-67
2022/07/29 01:09:10;;;;;;;;;;;;;;;18.80;83.23;101115.66;10584272;28;19928;-68
2022/07/29 01:14:15;;;;;;;;;;;;;;;18.92;83.02;101117.00;10584651;28;19930;-68
2022/07/29 01:19:36;;;;;;;;;;;;;;;18.93;82.60;101108.22;10584579;28;19928;-70
2022/07/29 01:24:52;;;;;;;;;;;;;;;18.76;83.78;101103.50;10584482;28;20352;-67
2022/07/29 01:29:58;;;;;;;;;;;;;;;18.81;83.75;101103.38;10584420;28;19924;-68
2022/07/29 01:35:03;;;;;;;;;;;;;;;18.82;83.61;101115.59;10583952;28;19934;-67
2022/07/29 01:40:10;;;;;;;;;;;;;;;18.78;84.35;101108.69;10588921;28;19934;-66
2022/07/29 01:45:16;;;;;;;;;;;;;;;18.82;84.20;101120.84;10591813;28;19935;-71
2022/07/29 01:50:21;;;;;;;;;;;;;;;18.73;84.90;101118.50;10591635;28;19923;-66
2022/07/29 01:55:27;;;;;;;;;;;;;;;18.54;86.35;101125.25;10591539;28;19923;-65
2022/07/29 02:00:33;;;;;;;;;;;;;;;18.60;86.39;101120.69;10591376;28;19924;-68
2022/07/29 02:05:36;;;;;;;;;;;;;;;18.48;86.31;101122.81;10590914;28;19924;-70
2022/07/29 02:10:40;;;;;;;;;;;;;;;18.52;85.83;101122.66;10589410;28;20359;-69
2022/07/29 02:15:45;;;;;;;;;;;;;;;18.54;86.00;101125.25;10584198;28;20355;-66
2022/07/29 02:20:49;;;;;;;;;;;;;;;18.35;87.33;101117.00;10584351;28;20367;-67
2022/07/29 02:25:54;;;;;;;;;;;;;;;18.30;87.94;101114.53;10584287;28;19938;-68
2022/07/29 02:31:00;;;;;;;;;;;;;;;18.04;89.56;101110.94;10584027;28;19935;-70
2022/07/29 02:36:03;;;;;;;;;;;;;;;18.13;88.85;101121.19;10583695;28;20275;-65
2022/07/29 02:41:11;;;;;;;;;;;;;;;18.19;88.16;101127.13;10583088;28;20238;-65
2022/07/29 02:46:17;;;;;;;;;;;;;;;18.18;89.22;101124.53;10249411;27;9999872;-68
2022/07/29 02:51:34;;;;;;;;;;;;;;;18.16;89.40;101127.22;10625892;27;20030;-67
2022/07/29 02:56:47;;;;;;;;;;;;;;;17.96;90.98;101129.56;10625893;27;19975;-65
2022/07/29 03:01:51;;;;;;;;;;;;;;;17.86;92.51;101130.69;10627273;27;19924;-68
2022/07/29 03:06:55;;;;;;;;;;;;;;;17.80;93.56;101130.88;10625577;27;20395;-69
2022/07/29 03:11:58;;;;;;;;;;;;;;;18.02;92.07;101126.75;10631002;27;19924;-66
2022/07/29 03:17:03;;;;;;;;;;;;;;;18.12;91.32;101128.19;10630621;27;20399;-66
2022/07/29 03:22:06;;;;;;;;;;;;;;;18.12;91.44;101133.44;10630402;27;20348;-70
2022/07/29 03:27:09;;;;;;;;;;;;;;;18.06;91.86;101132.78;10630185;27;20362;-67
2022/07/29 03:32:14;;;;;;;;;;;;;;;18.12;92.17;101137.88;10629898;27;19933;-68
2022/07/29 03:37:25;;;;;;;;;;;;;;;17.94;92.95;101133.97;10627781;27;19924;-66
2022/07/29 03:42:31;;;;;;;;;;;;;;;17.93;94.17;101134.88;10629319;27;19933;-69
2022/07/29 03:47:39;;;;;;;;;;;;;;;17.96;94.64;101124.31;10629253;27;19933;-66
2022/07/29 03:52:53;;;;;;;;;;;;;;;17.88;94.93;101122.75;10629154;27;19923;-66
2022/07/29 03:57:58;;;;;;;;;;;;;;;17.99;94.03;101132.09;10628342;27;21242;-66
2022/07/29 04:03:04;;;;;;;;;;;;;;;17.97;94.73;101138.28;10628272;27;19923;-65
2022/07/29 04:08:12;;;;;;;;;;;;;;;17.97;95.54;101133.88;10628727;27;19924;-68
2022/07/29 04:13:15;;;;;;;;;;;;;;;17.97;95.43;101133.88;10628089;27;20255;-67
2022/07/29 04:18:19;;;;;;;;;;;;;;;17.97;95.92;101131.25;10628055;27;19931;-66
2022/07/29 04:23:22;;;;;;;;;;;;;;;18.00;95.18;101133.78;10628116;27;19983;-66
2022/07/29 04:28:25;;;;;;;;;;;;;;;18.08;94.94;101136.22;10627909;27;19923;-67
2022/07/29 04:33:30;;;;;;;;;;;;;;;18.02;96.01;101134.63;10627862;27;19924;-67
2022/07/29 04:38:33;;;;;;;;;;;;;;;18.06;96.47;101132.78;10627541;27;19934;-67
2022/07/29 04:43:36;;;;;;;;;;;;;;;18.21;95.36;101134.94;10627482;27;20248;-65
2022/07/29 04:48:41;;;;;;;;;;;;;;;18.15;96.44;101140.41;10627085;28;19930;-67
2022/07/29 04:53:44;;;;;;;;;;;;;;;18.05;97.51;101142.41;10621312;28;19928;-65
2022/07/29 04:58:47;;;;;;;;;;;;;;;18.25;97.21;101147.97;10621936;28;19938;-69
2022/07/29 05:03:51;;;;;;;;;;;;;;;18.30;97.32;101143.44;10621929;28;19923;-68
2022/07/29 05:09:01;;;;;;;;;;;;;;;18.39;96.87;101147.56;10620909;28;19927;-65
2022/07/29 05:14:04;;;;;;;;;;;;;;;18.45;97.01;101146.56;10234452;27;10000013;-65
2022/07/29 05:19:09;;;;;;;;;;;;;;;18.47;97.78;101152.63;10587340;28;19928;-68
2022/07/29 05:24:16;;;;;;;;;;;;;;;18.56;97.79;101150.59;10586984;28;19927;-65
2022/07/29 05:29:19;;;;;;;;;;;;;;;18.57;97.70;101162.81;10585865;28;19928;-68
2022/07/29 05:34:43;;;;;;;;;;;;;;;18.66;97.71;101161.69;10587023;28;19923;-66
2022/07/29 05:39:55;;;;;;;;;;;;;;;18.70;97.78;101158.94;10586256;28;19939;-67
2022/07/29 05:45:01;;;;;;;;;;;;;;;18.69;98.04;101156.34;10585658;28;20329;-65
2022/07/29 05:50:06;;;;;;;;;;;;;;;18.76;97.78;101148.19;10586078;28;19938;-67
2022/07/29 05:55:09;;;;;;;;;;;;;;;18.85;97.61;101139.16;10585188;28;19924;-65
2022/07/29 06:00:13;;;;;;;;;;;;;;;18.88;97.88;101142.56;10584837;28;20363;-67
2022/07/29 06:05:17;;;;;;;;;;;;;;;18.93;97.47;101135.38;10584631;28;19924;-65
2022/07/29 06:10:20;;;;;;;;;;;;;;;19.00;97.42;101136.91;10584995;28;19939;-65
2022/07/29 06:15:28;;;;;;;;;;;;;;;19.09;96.67;101130.47;10584408;28;19945;-69
2022/07/29 06:20:32;;;;;;;;;;;;;;;19.11;96.44;101136.56;10579238;28;19981;-65
2022/07/29 06:25:36;;;;;;;;;;;;;;;19.22;96.28;101130.03;10584904;28;19928;-66
2022/07/29 06:30:39;;;;;;;;;;;;;;;19.27;95.99;101129.91;10583640;28;20341;-65
2022/07/29 06:35:44;;;;;;;;;;;;;;;19.34;95.58;101129.69;10583513;28;19927;-64
2022/07/29 06:41:01;;;;;;;;;;;;;;;19.41;94.99;101125.91;10583686;28;20052;-67
2022/07/29 06:46:05;;;;;;;;;;;;;;;19.49;94.82;101131.78;10583041;28;20022;-66
2022/07/29 06:51:11;;;;;;;;;;;;;;;19.58;94.45;101130.59;10582555;28;20366;-68
2022/07/29 06:56:14;;;;;;;;;;;;;;;19.68;94.10;101128.50;10582947;28;19974;-68
2022/07/29 07:01:17;;;;;;;;;;;;;;;19.75;94.00;101132.66;10582830;28;19927;-66
2022/07/29 07:06:21;;;;;;;;;;;;;;;19.78;93.57;101129.91;10582317;28;19924;-66
2022/07/29 07:11:24;;;;;;;;;;;;;;;19.82;92.96;101129.75;10586191;27;19923;-68
2022/07/29 07:16:27;;;;;;;;;;;;;;;19.92;92.87;101117.97;10582694;28;19938;-65
2022/07/29 07:21:33;;;;;;;;;;;;;;;20.01;92.09;101117.63;10581515;28;19980;-68
2022/07/29 07:26:39;;;;;;;;;;;;;;;20.10;91.25;101121.72;10581504;28;19927;-68
2022/07/29 07:31:42;;;;;;;;;;;;;;;20.19;89.85;101124.88;10581876;28;19928;-61
2022/07/29 07:36:46;;;;;;;;;;;;;;;20.26;89.25;101123.72;10580439;28;19932;-64
2022/07/29 07:41:49;;;;;;;;;;;;;;;20.32;87.98;101120.00;10580374;28;19928;-66
2022/07/29 07:46:52;;;;;;;;;;;;;;;20.39;87.82;101119.72;10580835;28;19934;-67
2022/07/29 07:51:57;;;;;;;;;;;;;;;20.47;87.02;101127.34;10581199;28;19928;-69
2022/07/29 07:57:00;;;;;;;;;;;;;;;20.50;86.25;101122.81;10580467;28;19923;-69
2022/07/29 08:02:04;;;;;;;;;;;;;;;20.60;86.16;101120.69;10580042;28;19988;-67
2022/07/29 08:07:08;;;;;;;;;;;;;;;20.66;85.92;101121.28;10580463;28;19934;-69
2022/07/29 08:12:11;;;;;;;;;;;;;;;20.77;84.91;101120.00;10579277;28;19935;-69
2022/07/29 08:17:14;;;;;;;;;;;;;;;20.85;84.67;101120.56;10579828;28;19938;-68
2022/07/29 08:22:19;;;;;;;;;;;;;;;20.95;82.95;101106.94;10579822;28;20268;-70
2022/07/29 08:27:22;;;;;;;;;;;;;;;20.99;82.83;101112.97;10579729;28;19938;-68
2022/07/29 08:32:45;;;;;;;;;;;;;;;21.16;82.78;101105.22;10578740;28;19931;-66
2022/07/29 08:37:58;;;;;;;;;;;;;;;21.38;82.31;101101.63;10580001;28;19924;-69
2022/07/29 08:43:07;;;;;;;;;;;;;;;21.56;81.36;101107.91;10579118;28;19923;-70
2022/07/29 08:48:10;;;;;;;;;;;;;;;21.72;80.83;101098.38;10584528;28;20020;-71
2022/07/29 08:53:15;;;;;;;;;;;;;;;21.85;80.42;101110.16;10592841;28;19928;-70
2022/07/29 08:58:19;;;;;;;;;;;;;;;22.02;80.37;101109.41;10593505;28;19923;-70
2022/07/29 09:03:30;;;;;;;;;;;;;;;22.10;79.60;101108.16;10592594;28;19928;-68
2022/07/29 09:08:34;;;;;;;;;;;;;;;22.30;77.34;101099.28;10592377;28;20022;-68
2022/07/29 09:13:37;;;;;;;;;;;;;;;22.43;76.74;101081.91;10612759;27;20260;-66
2022/07/29 09:18:41;;;;;;;;;;;;;;;22.71;75.47;101083.19;10595721;28;19934;-71
2022/07/29 09:29:14;;;;;;;;;;;;;;;23.22;72.16;101092.16;10579548;27;19912;-68
2022/07/29 09:34:18;;;;;;;;;;;;;;;23.09;72.27;101094.53;10579113;28;19934;-68
2022/07/29 09:39:28;;;;;;;;;;;;;;;23.09;70.33;101075.16;10579059;28;19934;-70
2022/07/29 09:44:47;;;;;;;;;;;;;;;23.30;68.73;101076.75;10578633;28;19924;-72
2022/07/29 09:49:51;;;;;;;;;;;;;;;23.70;68.09;101071.97;10578855;28;20275;-70
2022/07/29 09:55:04;;;;;;;;;;;;;;;24.01;65.12;101073.88;10575445;28;19930;-68
2022/07/29 10:00:10;;;;;;;;;;;;;;;24.27;65.65;101068.00;10572722;28;20014;-67
2022/07/29 10:05:20;;;;;;;;;;;;;;;25.09;63.83;101057.06;10572393;28;19928;-70
2022/07/29 10:10:24;;;;;;;;;;;;;;;28.04;54.03;101051.97;10577468;28;19934;-68
2022/07/29 10:15:29;;;;;;;;;;;;;;;25.67;58.33;101051.81;10593812;27;19969;-69
2022/07/29 10:20:32;;;;;;;;;;;;;;;25.42;57.99;101045.41;10571367;28;19963;-69
2022/07/29 10:25:35;;;;;;;;;;;;;;;24.88;59.29;101041.53;10583073;28;19935;-70
2022/07/29 10:30:40;;;;;;;;;;;;;;;24.47;60.24;101045.66;10614059;28;20432;-68
2022/07/29 10:35:57;;;;;;;;;;;;;;;24.96;58.83;101036.63;10612824;28;19938;-69
2022/07/29 10:46:34;;;;;;;;;;;;;;;25.30;57.68;101022.19;10585221;28;20330;-69
2022/07/29 10:51:56;;;;;;;;;;;;;;;25.15;57.58;101039.91;10585098;28;20393;-68
2022/07/29 10:57:11;;;;;;;;;;;;;;;25.65;56.34;101031.56;10584429;28;20077;-70
2022/07/29 11:02:32;;;;;;;;;;;;;;;25.64;56.65;101028.06;10584854;28;20419;-71
2022/07/29 11:08:07;;;;;;;;;;;;;;;25.39;56.66;101016.34;10583038;28;19930;-66
2022/07/29 11:13:11;;;;;;;;;;;;;;;25.48;56.65;101010.47;10583370;28;19932;-70
2022/07/29 11:18:15;;;;;;;;;;;;;;;25.90;54.99;101007.81;10583079;28;20348;-69
2022/07/29 11:23:21;;;;;;;;;;;;;;;25.93;54.33;101013.81;10583821;28;19928;-68
2022/07/29 11:28:25;;;;;;;;;;;;;;;25.99;55.06;101007.22;10582232;28;19927;-70
2022/07/29 11:33:29;;;;;;;;;;;;;;;26.01;54.65;101000.84;10613324;27;20358;-70
2022/07/29 11:38:52;;;;;;;;;;;;;;;25.98;53.99;100998.41;10591645;27;19934;-67
2022/07/29 11:43:57;;;;;;;;;;;;;;;26.14;54.59;100998.31;10588287;28;19924;-69
2022/07/29 11:49:01;;;;;;;;;;;;;;;26.32;53.83;100991.78;10586784;28;19928;-71
2022/07/29 11:54:13;;;;;;;;;;;;;;;26.88;52.56;100986.28;10587900;28;19938;-68
2022/07/29 11:59:20;;;;;;;;;;;;;;;27.95;50.77;100986.75;10570072;28;20333;-70
2022/07/29 12:04:24;;;;;;;;;;;;;;;28.62;50.11;100987.16;10582204;28;20267;-69
2022/07/29 12:09:27;;;;;;;;;;;;;;;29.37;47.65;100967.97;10581589;28;19954;-66
2022/07/29 12:14:46;;;;;;;;;;;;;;;28.92;48.12;100964.34;10623594;27;19923;-67
2022/07/29 12:19:49;;;;;;;;;;;;;;;29.21;47.97;100962.97;10580897;27;19934;-69
2022/07/29 12:24:52;;;;;;;;;;;;;;;28.33;49.17;100974.13;10580308;28;19934;-69
2022/07/29 12:30:17;;;;;;;;;;;;;;;29.26;46.63;100968.81;10541641;28;19934;-67
2022/07/29 12:35:20;;;;;;;;;;;;;;;29.43;46.31;100962.13;10545127;28;19924;-69
2022/07/29 12:40:24;;;;;;;;;;;;;;;28.80;47.34;100956.41;10586132;28;19930;-69
2022/07/29 12:45:30;;;;;;;;;;;;;;;27.83;50.16;100952.91;10586045;28;19928;-65
2022/07/29 12:50:33;;;;;;;;;;;;;;;27.20;49.25;100960.94;10543499;28;20357;-66
2022/07/29 12:55:40;;;;;;;;;;;;;;;26.92;50.31;100962.94;10544062;28;19924;-68
2022/07/29 13:00:45;;;;;;;;;;;;;;;26.95;49.68;100965.38;10585432;28;19934;-67
2022/07/29 13:05:50;;;;;;;;;;;;;;;27.33;49.23;100962.78;10584830;28;19924;-69
2022/07/29 13:10:53;;;;;;;;;;;;;;;27.47;48.74;100954.66;10585169;28;19924;-68
2022/07/29 13:16:08;;;;;;;;;;;;;;;27.28;49.10;100947.06;10584707;28;19924;-68
2022/07/29 13:21:11;;;;;;;;;;;;;;;27.09;50.80;100943.97;10542770;28;19928;-68
2022/07/29 13:26:16;;;;;;;;;;;;;;;27.05;50.90;100938.00;10544345;28;19934;-71
2022/07/29 13:31:20;;;;;;;;;;;;;;;26.68;51.50;100930.78;10584728;28;19984;-72
2022/07/29 13:36:23;;;;;;;;;;;;;;;26.54;51.71;100930.00;10584222;28;20242;-69
2022/07/29 13:41:26;;;;;;;;;;;;;;;26.54;51.78;100932.66;10584485;28;19928;-67
2022/07/29 13:46:30;;;;;;;;;;;;;;;26.36;52.08;100931.19;10584278;28;19923;-71
2022/07/29 13:51:34;;;;;;;;;;;;;;;26.54;51.11;100924.66;10584436;28;19923;-67
2022/07/29 13:56:37;;;;;;;;;;;;;;;26.84;50.07;100922.63;10584034;28;19924;-66
2022/07/29 14:01:41;;;;;;;;;;;;;;;27.63;47.57;100917.94;10583871;28;19923;-65
2022/07/29 14:06:44;;;;;;;;;;;;;;;27.34;46.27;100912.00;10583702;28;19923;-66
2022/07/29 14:11:49;;;;;;;;;;;;;;;27.76;46.08;100913.41;10583110;28;19928;-68
2022/07/29 14:16:57;;;;;;;;;;;;;;;27.44;47.09;100905.03;10339684;27;9999917;-67
2022/07/29 14:22:00;;;;;;;;;;;;;;;27.05;47.13;100908.69;10586252;28;20245;-67
2022/07/29 14:27:04;;;;;;;;;;;;;;;27.47;46.59;100904.84;10584685;28;19981;-68
2022/07/29 14:32:09;;;;;;;;;;;;;;;27.46;46.98;100895.13;10585111;28;20382;-66
2022/07/29 14:37:13;;;;;;;;;;;;;;;27.07;46.95;100893.44;10585758;28;19928;-68
2022/07/29 14:42:17;;;;;;;;;;;;;;;26.74;47.41;100890.44;10585069;28;20275;-70
2022/07/29 14:47:23;;;;;;;;;;;;;;;26.71;47.15;100885.31;10584761;28;19932;-69
2022/07/29 14:52:26;;;;;;;;;;;;;;;26.76;47.37;100888.53;10584986;28;20272;-67
2022/07/29 14:57:29;;;;;;;;;;;;;;;26.87;47.37;100885.13;10583876;28;19934;-71
2022/07/29 15:02:33;;;;;;;;;;;;;;;26.93;47.80;100880.22;10541766;28;19939;-67
2022/07/29 15:07:56;;;;;;;;;;;;;;;27.08;47.25;100872.94;10545186;28;19927;-68
2022/07/29 15:12:59;;;;;;;;;;;;;;;27.17;47.29;100867.84;10583648;28;20419;-66
2022/07/29 15:18:04;;;;;;;;;;;;;;;27.06;47.82;100870.41;10594145;27;20014;-66
2022/07/29 15:23:09;;;;;;;;;;;;;;;26.92;47.81;100862.50;10625216;27;19923;-66
2022/07/29 15:28:12;;;;;;;;;;;;;;;26.82;47.14;100850.78;10626237;27;20267;-68
2022/07/29 15:33:16;;;;;;;;;;;;;;;26.74;47.21;100855.81;10589966;27;19928;-67
2022/07/29 15:38:19;;;;;;;;;;;;;;;26.60;47.45;100853.19;10582538;28;20375;-67
2022/07/29 15:43:30;;;;;;;;;;;;;;;26.46;48.16;100841.75;10583130;28;20000;-70
2022/07/29 15:48:38;;;;;;;;;;;;;;;26.36;48.07;100838.03;10581053;28;19938;-67
2022/07/29 15:53:41;;;;;;;;;;;;;;;26.04;48.34;100841.03;10581921;28;19930;-64
2022/07/29 15:58:44;;;;;;;;;;;;;;;25.89;49.07;100833.16;10581244;28;20244;-64
2022/07/29 16:03:48;;;;;;;;;;;;;;;25.72;49.13;100825.44;10581423;28;19928;-66
2022/07/29 16:08:54;;;;;;;;;;;;;;;25.59;49.26;100829.84;10580869;28;19931;-69
2022/07/29 16:13:58;;;;;;;;;;;;;;;25.46;48.88;100835.09;10581736;28;19928;-66
2022/07/29 16:19:02;;;;;;;;;;;;;;;25.32;49.18;100835.09;10600490;27;20363;-66
2022/07/29 16:24:06;;;;;;;;;;;;;;;25.24;48.77;100834.72;10622760;27;19923;-67
2022/07/29 16:29:09;;;;;;;;;;;;;;;25.09;48.85;100833.03;10622834;27;19923;-68
2022/07/29 16:34:13;;;;;;;;;;;;;;;24.94;48.99;100833.97;10623121;27;20381;-66
2022/07/29 16:39:16;;;;;;;;;;;;;;;24.82;49.59;100832.91;10622489;27;20736;-67
2022/07/29 16:44:19;;;;;;;;;;;;;;;24.72;50.29;100836.22;10621985;27;19983;-67
2022/07/29 16:49:28;;;;;;;;;;;;;;;24.65;50.60;100841.03;10622851;27;19927;-66
2022/07/29 16:54:31;;;;;;;;;;;;;;;24.56;50.73;100846.88;10621863;27;19923;-70
2022/07/29 16:59:34;;;;;;;;;;;;;;;24.48;50.25;100849.16;10622080;27;19927;-62
2022/07/29 17:04:46;;;;;;;;;;;;;;;24.41;51.43;100858.41;10622677;27;19934;-62
2022/07/29 17:09:49;;;;;;;;;;;;;;;24.35;51.10;100855.28;10621033;27;19928;-61
2022/07/29 17:14:57;;;;;;;;;;;;;;;24.29;52.01;100855.63;10621450;27;19927;-62
2022/07/29 17:20:02;;;;;;;;;;;;;;;24.22;52.20;100854.28;10594065;27;19924;-65
2022/07/29 17:25:05;;;;;;;;;;;;;;;24.19;51.99;100865.94;10578459;28;20029;-66
2022/07/29 17:30:09;;;;;;;;;;;;;;;24.19;51.83;100859.75;10578290;28;19938;-65
2022/07/29 17:40:34;;;;;;;;;;;;;;;24.05;52.68;100859.69;10579536;28;19927;-62
2022/07/29 17:45:37;;;;;;;;;;;;;;;23.96;53.32;100864.56;10578597;28;19946;-62
2022/07/29 17:50:53;;;;;;;;;;;;;;;23.87;53.79;100864.22;10585974;28;20349;-65
2022/07/29 17:55:57;;;;;;;;;;;;;;;23.78;53.56;100864.75;10587682;28;20226;-63
2022/07/29 18:01:03;;;;;;;;;;;;;;;23.69;54.71;100868.75;10586412;28;19928;-63
2022/07/29 18:06:09;;;;;;;;;;;;;;;23.61;55.83;100870.97;10586029;28;20026;-63
2022/07/29 18:11:12;;;;;;;;;;;;;;;23.50;55.45;100864.56;10586857;28;19929;-65
2022/07/29 18:16:17;;;;;;;;;;;;;;;23.44;55.78;100864.91;10585849;28;19934;-62
2022/07/29 18:21:21;;;;;;;;;;;;;;;23.33;56.73;100867.28;10624155;27;20028;-63
2022/07/29 18:26:45;;;;;;;;;;;;;;;23.24;56.69;100867.75;10629037;27;20022;-63
2022/07/29 18:31:48;;;;;;;;;;;;;;;23.23;57.25;100868.72;10627858;27;20325;-67
2022/07/29 18:36:53;;;;;;;;;;;;;;;23.14;57.98;100874.50;10627763;27;20063;-71
2022/07/29 18:41:56;;;;;;;;;;;;;;;23.03;57.90;100877.72;10627890;27;20017;-68
2022/07/29 18:47:00;;;;;;;;;;;;;;;22.97;58.58;100885.94;10627775;27;20014;-66
2022/07/29 18:52:05;;;;;;;;;;;;;;;22.91;58.68;100875.69;10627338;27;19930;-68
2022/07/29 18:57:08;;;;;;;;;;;;;;;22.85;58.56;100876.88;10626398;27;19930;-66
2022/07/29 19:02:32;;;;;;;;;;;;;;;22.74;58.22;100878.38;10627287;27;20612;-67
2022/07/29 19:07:37;;;;;;;;;;;;;;;22.63;57.95;100886.00;10626056;27;19924;-66
2022/07/29 19:12:40;;;;;;;;;;;;;;;22.56;57.87;100889.88;10626130;27;19927;-69
2022/07/29 19:17:45;;;;;;;;;;;;;;;22.47;58.24;100888.53;10618440;27;19927;-70
2022/07/29 19:22:49;;;;;;;;;;;;;;;22.42;58.30;100902.91;10583331;28;19924;-69
2022/07/29 19:27:52;;;;;;;;;;;;;;;22.31;59.30;100900.84;10582523;28;19928;-69
2022/07/29 19:32:55;;;;;;;;;;;;;;;22.28;59.18;100895.69;10583439;28;19928;-68
2022/07/29 19:38:00;;;;;;;;;;;;;;;22.22;59.30;100892.47;10583428;28;20351;-66
2022/07/29 19:43:03;;;;;;;;;;;;;;;22.17;59.50;100895.38;10582180;28;19954;-66
2022/07/29 19:48:26;;;;;;;;;;;;;;;22.16;59.30;100884.88;10582309;28;20337;-70
2022/07/29 19:53:31;;;;;;;;;;;;;;;22.12;58.72;100892.09;10582691;28;19923;-66
2022/07/29 19:58:34;;;;;;;;;;;;;;;22.06;58.38;100894.16;10582028;28;19927;-68
2022/07/29 20:03:38;;;;;;;;;;;;;;;21.98;58.33;100905.13;10581544;28;19936;-66
2022/07/29 20:08:44;;;;;;;;;;;;;;;21.95;58.78;100902.59;10581594;28;19930;-68
2022/07/29 20:13:47;;;;;;;;;;;;;;;21.92;58.99;100902.75;10581574;28;19938;-68
2022/07/29 20:18:49;;;;;;;;;;;;;;;21.90;58.89;100904.59;10598737;27;19923;-68
2022/07/29 20:23:55;;;;;;;;;;;;;;;21.74;59.48;100911.53;10623604;27;19945;-67
2022/07/29 20:28:58;;;;;;;;;;;;;;;21.71;59.49;100909.88;10623855;27;20267;-69
2022/07/29 20:34:01;;;;;;;;;;;;;;;21.56;60.69;100901.81;10622755;27;19954;-67
2022/07/29 20:39:06;;;;;;;;;;;;;;;21.54;59.87;100907.19;10622937;27;20601;-69
2022/07/29 20:44:09;;;;;;;;;;;;;;;21.44;59.33;100897.09;10623288;27;19928;-68
2022/07/29 20:49:12;;;;;;;;;;;;;;;21.35;59.58;100894.88;10622558;27;19933;-68
2022/07/29 20:54:16;;;;;;;;;;;;;;;21.31;60.17;100888.88;10622049;27;19927;-66
2022/07/29 20:59:19;;;;;;;;;;;;;;;21.35;60.10;100894.88;10622637;27;19927;-67
2022/07/29 21:04:22;;;;;;;;;;;;;;;21.25;59.91;100888.31;10622968;27;19928;-68
2022/07/29 21:09:34;;;;;;;;;;;;;;;21.19;60.37;100884.16;10621570;27;20348;-67
2022/07/29 21:14:46;;;;;;;;;;;;;;;21.15;60.27;100887.88;10604293;27;19931;-68
2022/07/29 21:19:51;;;;;;;;;;;;;;;21.04;60.51;100884.84;10596282;28;19934;-68
2022/07/29 21:24:55;;;;;;;;;;;;;;;21.08;61.11;100877.66;10578525;28;19992;-69
2022/07/29 21:29:58;;;;;;;;;;;;;;;21.21;61.25;100873.53;10578624;28;19958;-66
2022/07/29 21:35:02;;;;;;;;;;;;;;;21.17;61.47;100879.88;10578840;28;20349;-66
2022/07/29 21:40:18;;;;;;;;;;;;;;;21.18;61.25;100865.72;10579457;28;20271;-67
2022/07/29 21:45:21;;;;;;;;;;;;;;;21.16;60.90;100868.44;10579040;28;19947;-67
2022/07/29 21:50:24;;;;;;;;;;;;;;;21.14;60.99;100867.66;10578414;28;19928;-68
2022/07/29 21:55:28;;;;;;;;;;;;;;;21.06;61.18;100874.22;10579164;28;20027;-70
2022/07/29 22:00:34;;;;;;;;;;;;;;;21.03;61.21;100871.72;10579426;28;20382;-68
2022/07/29 22:05:37;;;;;;;;;;;;;;;21.01;61.60;100876.19;10584276;28;19924;-68
2022/07/29 22:10:42;;;;;;;;;;;;;;;20.97;61.58;100874.59;10583499;28;19924;-68
2022/07/29 22:15:45;;;;;;;;;;;;;;;20.97;61.96;100867.53;10584226;28;19934;-68
2022/07/29 22:20:49;;;;;;;;;;;;;;;20.87;62.37;100860.06;10584043;28;19923;-67
2022/07/29 22:25:53;;;;;;;;;;;;;;;20.93;63.06;100862.47;10583188;28;19924;-69
2022/07/29 22:30:56;;;;;;;;;;;;;;;20.86;62.74;100856.59;10583599;28;20375;-67
2022/07/29 22:35:59;;;;;;;;;;;;;;;20.84;62.46;100854.94;10589680;28;19923;-66
2022/07/29 22:41:04;;;;;;;;;;;;;;;20.82;62.39;100849.75;10591213;28;19924;-68
2022/07/29 22:46:07;;;;;;;;;;;;;;;20.74;62.34;100849.22;10591130;28;19976;-65
2022/07/29 22:51:11;;;;;;;;;;;;;;;20.77;61.98;100848.22;10590874;28;19934;-69
2022/07/29 22:56:15;;;;;;;;;;;;;;;20.74;62.62;100858.91;10590892;28;19971;-68
2022/07/29 23:01:18;;;;;;;;;;;;;;;20.74;63.11;100851.00;10590569;28;20028;-69
2022/07/29 23:06:40;;;;;;;;;;;;;;;20.81;63.27;100845.41;10590387;28;20014;-69
2022/07/29 23:11:44;;;;;;;;;;;;;;;20.81;63.21;100853.31;10589957;28;20329;-68
2022/07/29 23:16:47;;;;;;;;;;;;;;;20.82;62.98;100841.81;10589927;28;20367;-68
2022/07/29 23:21:51;;;;;;;;;;;;;;;20.79;63.01;100841.97;10589793;28;19931;-68
2022/07/29 23:26:55;;;;;;;;;;;;;;;20.78;63.87;100832.31;10589139;28;19924;-68
2022/07/29 23:31:58;;;;;;;;;;;;;;;20.76;63.92;100831.53;10589589;28;19928;-66
2022/07/29 23:37:01;;;;;;;;;;;;;;;20.76;63.33;100838.59;10589238;28;19934;-66
2022/07/29 23:42:06;;;;;;;;;;;;;;;20.74;63.73;100837.81;10588844;28;19924;-71
2022/07/29 23:47:09;;;;;;;;;;;;;;;20.73;62.99;100836.94;10588538;28;19923;-68
2022/07/29 23:52:12;;;;;;;;;;;;;;;20.65;62.96;100834.66;10588217;28;19930;-66
2022/07/29 23:57:16;;;;;;;;;;;;;;;20.58;64.10;100827.94;10588342;28;19924;-65
